Time;durP1;ratioP1;P1;durP2;ratioP2;P2;SDS_P1;SDS_P2;PMS_P1;PMS_P2;Temp;Humidity;BMP_temperature;BMP_pressure;BME280_temperature;BME280_humidity;BME280_pressure;Samples;Min_cycle;Max_cycle;Signal;HPM_P1;HPM_P2
2024/01/25 00:00:25;;;;;;;8.3;3.2;;;;;;;6.59;77.32;98448.333333333;;;;
2024/01/25 00:11:25;;;;;;;8.3;3.2;;;;;;;6.7;76.03;98446.666666667;;;;
2024/01/25 00:22:25;;;;;;;6.2;3.4;;;;;;;6.63;77.31;98455;;;;
2024/01/25 00:32:25;;;;;;;6.2;3.4;;;;;;;6.48;78.49;98458.333333333;;;;
2024/01/25 00:43:25;;;;;;;6.2;3.4;;;;;;;6.75;75.3;98450;;;;
2024/01/25 00:54:25;;;;;;;10;3.3;;;;;;;6.77;75.14;98461.666666667;;;;
2024/01/25 01:04:25;;;;;;;10;3.3;;;;;;;6.72;76.43;98470;;;;
2024/01/25 01:14:25;;;;;;;10;3.3;;;;;;;6.84;74.89;98461.666666667;;;;
2024/01/25 01:25:25;;;;;;;3.4;2.2;;;;;;;7.06;72.77;98455;;;;
2024/01/25 01:36:25;;;;;;;3.4;2.2;;;;;;;7.13;71.88;98465;;;;
2024/01/25 01:46:25;;;;;;;3.4;2.2;;;;;;;6.92;73.68;98443.333333333;;;;
2024/01/25 01:57:25;;;;;;;6.2;3.3;;;;;;;6.91;72.03;98455;;;;
2024/01/25 02:07:25;;;;;;;6.2;3.3;;;;;;;6.91;71.73;98440;;;;
2024/01/25 02:17:25;;;;;;;6.2;3.3;;;;;;;6.86;71.39;98460;;;;
2024/01/25 02:27:25;;;;;;;5;2.2;;;;;;;7.04;69.76;98438.333333333;;;;
2024/01/25 02:38:25;;;;;;;5;2.2;;;;;;;7.11;69;98430;;;;
2024/01/25 02:49:25;;;;;;;5;2.2;;;;;;;7.15;68.28;98430;;;;
2024/01/25 03:00:25;;;;;;;6.4;1.9;;;;;;;7.21;67.18;98423.333333333;;;;
2024/01/25 03:11:25;;;;;;;6.4;1.9;;;;;;;7.27;66.46;98428.333333333;;;;
2024/01/25 03:21:25;;;;;;;5.6;2.3;;;;;;;7.23;65.85;98431.666666667;;;;
2024/01/25 03:31:25;;;;;;;5.6;2.3;;;;;;;7.2;65.28;98431.666666667;;;;
2024/01/25 03:42:25;;;;;;;5.6;2.3;;;;;;;7.2;65.37;98423.333333333;;;;
2024/01/25 03:53:25;;;;;;;4.9;2.5;;;;;;;7.18;64.87;98423.333333333;;;;
2024/01/25 04:04:25;;;;;;;4.9;2.5;;;;;;;7.15;64.55;98425;;;;
2024/01/25 04:15:25;;;;;;;4.9;2.5;;;;;;;7.13;65.44;98461.666666667;;;;
2024/01/25 04:26:25;;;;;;;5.9;2.9;;;;;;;7.02;65.71;98466.666666667;;;;
2024/01/25 04:36:25;;;;;;;5.9;2.9;;;;;;;6.99;65.8;98468.333333333;;;;
2024/01/25 04:47:25;;;;;;;5.9;2.9;;;;;;;7.01;65.81;98466.666666667;;;;
2024/01/25 04:58:25;;;;;;;6.6;2.4;;;;;;;7.02;65.74;98456.666666667;;;;
2024/01/25 05:08:25;;;;;;;6.6;2.4;;;;;;;6.92;66.95;98448.333333333;;;;
2024/01/25 05:19:25;;;;;;;6.6;2.4;;;;;;;6.75;69.3;98456.666666667;;;;
2024/01/25 05:29:25;;;;;;;4.4;1.7;;;;;;;6.61;70.09;98458.333333333;;;;
2024/01/25 05:40:25;;;;;;;4.4;1.7;;;;;;;6.6;69.43;98446.666666667;;;;
2024/01/25 05:51:25;;;;;;;4.9;2.3;;;;;;;6.69;68.38;98440;;;;
2024/01/25 06:02:25;;;;;;;4.9;2.3;;;;;;;6.67;69.17;98453.333333333;;;;
2024/01/25 06:12:25;;;;;;;4.9;2.3;;;;;;;6.54;70.6;98451.666666667;;;;
2024/01/25 06:23:25;;;;;;;5.3;2.2;;;;;;;6.6;69.76;98445;;;;
2024/01/25 06:33:25;;;;;;;5.3;2.2;;;;;;;6.47;73.12;98456.666666667;;;;
2024/01/25 06:43:25;;;;;;;5.3;2.2;;;;;;;6.29;74.35;98466.666666667;;;;
2024/01/25 06:53:25;;;;;;;8.5;2.6;;;;;;;6.07;77.58;98470;;;;
2024/01/25 07:04:25;;;;;;;8.5;2.6;;;;;;;5.78;78.82;98471.666666667;;;;
2024/01/25 07:15:25;;;;;;;8.5;2.6;;;;;;;5.77;77.96;98471.666666667;;;;
2024/01/25 07:26:25;;;;;;;9.6;3.1;;;;;;;5.82;77.58;98480;;;;
2024/01/25 07:37:25;;;;;;;9.6;3.1;;;;;;;5.79;77.3;98496.666666667;;;;
2024/01/25 07:48:25;;;;;;;9.6;3.1;;;;;;;5.78;79.08;98485;;;;
2024/01/25 07:58:25;;;;;;;4.9;2.6;;;;;;;5.72;79.16;98501.666666667;;;;
2024/01/25 08:08:25;;;;;;;4.9;2.6;;;;;;;5.66;79.71;98533.333333333;;;;
2024/01/25 08:19:25;;;;;;;4.9;2.6;;;;;;;5.34;83.76;98551.666666667;;;;
2024/01/25 08:30:25;;;;;;;6.5;2.6;;;;;;;5.1;85.21;98543.333333333;;;;
2024/01/25 08:41:25;;;;;;;6.5;2.6;;;;;;;5.11;85.31;98540;;;;
2024/01/25 08:52:25;;;;;;;5.8;2.6;;;;;;;5.16;85.5;98546.666666667;;;;
2024/01/25 09:02:27;;;;;;;5.8;2.6;;;;;;;5.22;85.94;98540;;;;
2024/01/25 09:12:25;;;;;;;5.8;2.6;;;;;;;5.38;84.32;98538.333333333;;;;
2024/01/25 09:23:25;;;;;;;10.5;3.5;;;;;;;5.43;83.98;98538.333333333;;;;
2024/01/25 09:34:25;;;;;;;10.5;3.5;;;;;;;5.55;82.63;98535;;;;
2024/01/25 09:44:25;;;;;;;10.5;3.5;;;;;;;5.65;82.54;98535;;;;
2024/01/25 09:55:26;;;;;;;12.2;4.8;;;;;;;5.72;80.73;98531.666666667;;;;
2024/01/25 10:06:25;;;;;;;12.2;4.8;;;;;;;5.91;80.37;98553.333333333;;;;
2024/01/25 10:17:25;;;;;;;12.2;4.8;;;;;;;5.94;80.27;98548.333333333;;;;
2024/01/25 10:28:25;;;;;;;12;4;;;;;;;5.96;79.18;98563.333333333;;;;
2024/01/25 10:38:25;;;;;;;12;4;;;;;;;5.91;78.61;98563.333333333;;;;
2024/01/25 10:48:25;;;;;;;12;4;;;;;;;6.01;77.98;98565;;;;
2024/01/25 10:59:27;;;;;;;10.5;2.9;;;;;;;6.02;77.45;98563.333333333;;;;
2024/01/25 11:09:25;;;;;;;10.5;2.9;;;;;;;6.05;76.5;98573.333333333;;;;
2024/01/25 11:20:25;;;;;;;8.2;3.4;;;;;;;6.13;74.43;98570;;;;
2024/01/25 11:31:25;;;;;;;8.2;3.4;;;;;;;6.27;71.94;98566.666666667;;;;
2024/01/25 11:42:25;;;;;;;8.2;3.4;;;;;;;6.49;71.84;98570;;;;
2024/01/25 11:52:26;;;;;;;9.2;3.2;;;;;;;6.67;70.91;98576.666666667;;;;
2024/01/25 12:02:25;;;;;;;9.2;3.2;;;;;;;6.8;69.44;98595;;;;
2024/01/25 12:13:25;;;;;;;9.2;3.2;;;;;;;6.81;70.67;98610;;;;
2024/01/25 12:24:25;;;;;;;13.6;3.1;;;;;;;6.73;70.36;98628.333333333;;;;
2024/01/25 12:34:25;;;;;;;13.6;3.1;;;;;;;6.61;70.9;98630;;;;
2024/01/25 12:44:25;;;;;;;13.6;3.1;;;;;;;6.52;71.56;98630;;;;
2024/01/25 12:55:25;;;;;;;5.6;2.4;;;;;;;6.52;72.12;98630;;;;
2024/01/25 13:06:25;;;;;;;5.6;2.4;;;;;;;6.57;71.9;98626.666666667;;;;
2024/01/25 13:17:27;;;;;;;5.6;2.4;;;;;;;6.5;71.94;98643.333333333;;;;
2024/01/25 13:28:25;;;;;;;6.5;3.2;;;;;;;6.5;72.53;98648.333333333;;;;
2024/01/25 13:38:25;;;;;;;6.5;3.2;;;;;;;6.45;72.76;98661.666666667;;;;
2024/01/25 13:48:25;;;;;;;6.5;3.2;;;;;;;6.39;73.12;98666.666666667;;;;
2024/01/25 13:58:25;;;;;;;6.5;3.8;;;;;;;6.41;72.6;98671.666666667;;;;
2024/01/25 14:08:25;;;;;;;6.5;3.8;;;;;;;6.35;72.97;98680;;;;
2024/01/25 14:19:25;;;;;;;6.7;3.1;;;;;;;6.36;72.86;98693.333333333;;;;
2024/01/25 14:29:25;;;;;;;6.7;3.1;;;;;;;6.33;72.63;98701.666666667;;;;
2024/01/25 14:40:25;;;;;;;6.7;3.1;;;;;;;6.26;73.14;98711.666666667;;;;
2024/01/25 14:51:25;;;;;;;6.8;3;;;;;;;6.22;73.71;98713.333333333;;;;
2024/01/25 15:02:25;;;;;;;6.8;3;;;;;;;6.2;73.62;98726.666666667;;;;
2024/01/25 15:12:25;;;;;;;6.8;3;;;;;;;6.15;74.33;98731.666666667;;;;
2024/01/25 15:23:25;;;;;;;9;3.4;;;;;;;6.1;74.55;98746.666666667;;;;
2024/01/25 15:34:26;;;;;;;9;3.4;;;;;;;6.1;74.27;98756.666666667;;;;
2024/01/25 15:44:25;;;;;;;9;3.4;;;;;;;6.14;73.64;98765;;;;
2024/01/25 15:55:25;;;;;;;7.6;3.5;;;;;;;6.12;73.79;98780;;;;
2024/01/25 16:05:25;;;;;;;7.6;3.5;;;;;;;6.09;73.51;98786.666666667;;;;
2024/01/25 16:15:27;;;;;;;7.6;3.5;;;;;;;6.08;73.31;98798.333333333;;;;
2024/01/25 16:25:25;;;;;;;11.5;3.2;;;;;;;6.17;71.9;98806.666666667;;;;
2024/01/25 16:36:25;;;;;;;11.5;3.2;;;;;;;6.19;71.64;98828.333333333;;;;
2024/01/25 16:46:25;;;;;;;11.5;3.2;;;;;;;6.2;71.72;98850;;;;
2024/01/25 16:56:25;;;;;;;7;3.5;;;;;;;6.15;72.22;98871.666666667;;;;
2024/01/25 17:07:26;;;;;;;7;3.5;;;;;;;6.09;72.52;98875;;;;
2024/01/25 17:17:26;;;;;;;7;3.5;;;;;;;6.05;73.48;98896.666666667;;;;
2024/01/25 17:28:26;;;;;;;7.2;2.7;;;;;;;5.79;77.72;98906.666666667;;;;
2024/01/25 17:38:25;;;;;;;7.2;2.7;;;;;;;5.51;80.08;98915;;;;
2024/01/25 17:48:25;;;;;;;10.7;3.6;;;;;;;5.27;82.19;98920;;;;
2024/01/25 17:59:26;;;;;;;10.7;3.6;;;;;;;4.93;84.56;98931.666666667;;;;
2024/01/25 18:09:25;;;;;;;10.7;3.6;;;;;;;4.84;85.3;98935;;;;
2024/01/25 18:19:26;;;;;;;7;3.6;;;;;;;4.83;85.7;98955;;;;
2024/01/25 18:30:25;;;;;;;7;3.6;;;;;;;4.63;87.17;98965;;;;
2024/01/25 18:41:25;;;;;;;7;3.6;;;;;;;4.55;88.46;98970;;;;
2024/01/25 18:51:25;;;;;;;8.2;3.8;;;;;;;4.37;89.2;98966.666666667;;;;
2024/01/25 19:01:25;;;;;;;8.2;3.8;;;;;;;4.37;89.03;98956.666666667;;;;
2024/01/25 19:12:25;;;;;;;8.2;3.8;;;;;;;4.35;89.64;98965;;;;
2024/01/25 19:23:25;;;;;;;14.3;5.2;;;;;;;4.33;90.12;98966.666666667;;;;
2024/01/25 19:34:25;;;;;;;14.3;5.2;;;;;;;4.37;89.88;98973.333333333;;;;
2024/01/25 19:44:25;;;;;;;14.3;5.2;;;;;;;4.36;89.53;98976.666666667;;;;
2024/01/25 19:54:25;;;;;;;10.6;4.1;;;;;;;4.49;88.24;98973.333333333;;;;
2024/01/25 20:05:25;;;;;;;10.6;4.1;;;;;;;4.59;87.22;98981.666666667;;;;
2024/01/25 20:15:25;;;;;;;10.6;4.1;;;;;;;4.59;87.7;98993.333333333;;;;
2024/01/25 20:25:25;;;;;;;13.2;5.5;;;;;;;4.53;87.96;99000;;;;
2024/01/25 20:35:25;;;;;;;13.2;5.5;;;;;;;4.5;88.81;99000;;;;
2024/01/25 20:46:26;;;;;;;13.2;5.5;;;;;;;4.48;88.89;98998.333333333;;;;
2024/01/25 20:57:25;;;;;;;11.2;5.7;;;;;;;4.48;89.17;99008.333333333;;;;
2024/01/25 21:08:25;;;;;;;11.2;5.7;;;;;;;4.45;88.86;99010;;;;
2024/01/25 21:19:25;;;;;;;11.9;5;;;;;;;4.47;88.63;99006.666666667;;;;
2024/01/25 21:30:25;;;;;;;11.9;5;;;;;;;4.48;88.51;99011.666666667;;;;
2024/01/25 21:41:25;;;;;;;11.9;5;;;;;;;4.44;87.67;99015;;;;
2024/01/25 21:52:25;;;;;;;11.4;6.2;;;;;;;4.43;87.12;99026.666666667;;;;
2024/01/25 22:03:25;;;;;;;11.4;6.2;;;;;;;4.33;86.56;99055;;;;
2024/01/25 22:13:25;;;;;;;11.4;6.2;;;;;;;4.35;84.88;99076.666666667;;;;
2024/01/25 22:24:25;;;;;;;10.1;3.6;;;;;;;4.16;85.95;99095;;;;
2024/01/25 22:35:25;;;;;;;10.1;3.6;;;;;;;4.19;84.89;99101.666666667;;;;
2024/01/25 22:45:25;;;;;;;10.1;3.6;;;;;;;4.21;84.63;99108.333333333;;;;
2024/01/25 22:55:25;;;;;;;6.9;3.2;;;;;;;4.2;84.76;99118.333333333;;;;
2024/01/25 23:05:25;;;;;;;6.9;3.2;;;;;;;4.16;85;99130;;;;
2024/01/25 23:16:25;;;;;;;6.9;3.2;;;;;;;4.17;85.16;99136.666666667;;;;
2024/01/25 23:27:25;;;;;;;9.5;3.8;;;;;;;4.21;85.26;99145;;;;
2024/01/25 23:37:25;;;;;;;9.5;3.8;;;;;;;4.14;85.5;99143.333333333;;;;
2024/01/25 23:48:25;;;;;;;9.7;3.7;;;;;;;4.16;85.74;99163.333333333;;;;
2024/01/25 23:59:25;;;;;;;9.7;3.7;;;;;;;4.17;85.63;99188.333333333;;;;
